createdAt,value
2023-05-19T00:00:24.838Z,12.66
2023-05-19T00:01:28.327Z,12.63
2023-05-19T00:02:33.690Z,12.63
2023-05-19T00:03:40.501Z,12.59
2023-05-19T00:04:42.924Z,12.56
2023-05-19T00:05:46.207Z,12.60
2023-05-19T00:06:51.650Z,12.60
2023-05-19T00:07:54.518Z,12.53
2023-05-19T00:09:15.606Z,12.57
2023-05-19T00:10:18.448Z,12.55
2023-05-19T00:11:22.460Z,12.54
2023-05-19T00:12:24.901Z,12.51
2023-05-19T00:13:27.558Z,12.50
2023-05-19T00:14:30.021Z,12.56
2023-05-19T00:15:32.559Z,12.57
2023-05-19T00:16:36.212Z,12.59
2023-05-19T00:17:38.493Z,12.64
2023-05-19T00:18:40.789Z,12.65
2023-05-19T00:19:45.232Z,12.62
2023-05-19T00:20:47.467Z,12.68
2023-05-19T00:21:49.712Z,12.74
2023-05-19T00:22:51.923Z,12.76
2023-05-19T00:23:54.275Z,12.76
2023-05-19T00:24:56.571Z,12.77
2023-05-19T00:25:58.685Z,12.68
2023-05-19T00:27:00.857Z,12.67
2023-05-19T00:28:03.266Z,12.61
2023-05-19T00:29:05.715Z,12.66
2023-05-19T00:30:08.464Z,12.67
2023-05-19T00:31:10.704Z,12.70
2023-05-19T00:32:12.975Z,12.70
2023-05-19T00:33:15.330Z,12.66
2023-05-19T00:34:17.515Z,12.62
2023-05-19T00:35:20.297Z,12.50
2023-05-19T00:36:22.481Z,12.48
2023-05-19T00:37:24.698Z,12.45
2023-05-19T00:38:26.910Z,12.47
2023-05-19T00:39:29.065Z,12.45
2023-05-19T00:40:31.592Z,12.46
2023-05-19T00:41:33.955Z,12.49
2023-05-19T00:42:36.207Z,12.51
2023-05-19T00:43:38.454Z,12.55
2023-05-19T00:44:41.811Z,12.55
2023-05-19T00:45:44.556Z,12.54
2023-05-19T00:46:46.772Z,12.55
2023-05-19T00:47:49.662Z,12.49
2023-05-19T00:48:51.887Z,12.48
2023-05-19T00:49:54.044Z,12.49
2023-05-19T00:51:02.377Z,12.48
2023-05-19T00:52:06.296Z,12.42
2023-05-19T00:53:08.534Z,12.40
2023-05-19T00:54:10.817Z,12.42
2023-05-19T00:55:14.151Z,12.43
2023-05-19T00:56:16.896Z,12.42
2023-05-19T00:57:19.287Z,12.41
2023-05-19T00:58:21.600Z,12.41
2023-05-19T00:59:23.914Z,12.39
2023-05-19T01:00:26.117Z,12.39
2023-05-19T01:01:28.607Z,12.33
2023-05-19T01:02:32.471Z,12.33
2023-05-19T01:03:35.676Z,12.26
2023-05-19T01:04:38.319Z,12.21
2023-05-19T01:05:42.079Z,12.17
2023-05-19T01:06:44.333Z,12.12
2023-05-19T01:07:47.426Z,12.11
2023-05-19T01:08:51.513Z,12.12
2023-05-19T01:09:53.833Z,12.11
2023-05-19T01:10:56.030Z,12.09
2023-05-19T01:11:58.942Z,12.07
2023-05-19T01:13:03.109Z,12.08
2023-05-19T01:14:05.380Z,12.06
2023-05-19T01:15:07.986Z,12.05
2023-05-19T01:16:22.374Z,12.04
2023-05-19T01:17:40.505Z,12.07
2023-05-19T01:19:02.377Z,12.03
2023-05-19T01:20:27.628Z,12.06
2023-05-19T01:21:45.321Z,12.14
2023-05-19T01:23:05.772Z,12.16
2023-05-19T01:24:23.040Z,12.17
2023-05-19T01:25:37.479Z,12.18
2023-05-19T01:27:01.063Z,12.16
2023-05-19T01:28:39.685Z,12.18
2023-05-19T01:29:44.817Z,12.24
2023-05-19T01:30:53.102Z,12.24
2023-05-19T01:31:55.892Z,12.23
2023-05-19T01:33:03.273Z,12.20
2023-05-19T01:34:06.366Z,12.14
2023-05-19T01:35:10.027Z,12.08
2023-05-19T01:36:12.541Z,12.01
2023-05-19T01:37:15.436Z,11.96
2023-05-19T01:38:19.293Z,11.97
2023-05-19T01:39:22.166Z,11.94
2023-05-19T01:40:25.389Z,11.98
2023-05-19T01:41:28.578Z,12.02
2023-05-19T01:42:37.280Z,12.06
2023-05-19T01:43:40.761Z,12.06
2023-05-19T01:44:43.006Z,12.06
2023-05-19T01:45:45.878Z,12.04
2023-05-19T01:46:48.994Z,12.07
2023-05-19T01:47:55.063Z,12.11
2023-05-19T01:48:58.038Z,12.13
2023-05-19T01:50:00.817Z,12.13
2023-05-19T01:51:03.092Z,12.15
2023-05-19T01:52:05.638Z,12.17
2023-05-19T01:53:08.129Z,12.20
2023-05-19T01:54:10.481Z,12.19
2023-05-19T01:55:12.875Z,12.23
2023-05-19T01:56:17.469Z,12.23
2023-05-19T01:57:28.146Z,12.20
2023-05-19T01:58:53.439Z,12.17
2023-05-19T02:00:21.691Z,12.16
2023-05-19T02:01:51.504Z,12.16
2023-05-19T02:03:15.906Z,12.16
2023-05-19T02:04:44.258Z,12.14
2023-05-19T02:06:07.094Z,12.12
2023-05-19T02:07:21.274Z,12.09
2023-05-19T02:08:47.740Z,12.05
2023-05-19T02:10:05.720Z,12.00
2023-05-19T02:11:14.875Z,12.04
2023-05-19T02:12:28.344Z,12.07
2023-05-19T02:13:33.690Z,11.98
2023-05-19T02:14:42.025Z,11.93
2023-05-19T02:15:45.626Z,11.93
2023-05-19T02:16:48.789Z,11.95
2023-05-19T02:17:54.428Z,12.00
2023-05-19T02:18:59.318Z,12.02
2023-05-19T02:20:02.252Z,12.02
2023-05-19T02:21:04.544Z,12.06
2023-05-19T02:22:06.857Z,12.07
2023-05-19T02:23:09.039Z,12.07
2023-05-19T02:24:11.175Z,12.05
2023-05-19T02:25:13.427Z,12.05
2023-05-19T02:26:15.638Z,12.01
2023-05-19T02:27:18.657Z,12.04
2023-05-19T02:28:20.793Z,12.05
2023-05-19T02:29:22.967Z,12.01
2023-05-19T02:30:25.429Z,12.03
2023-05-19T02:31:27.628Z,12.02
2023-05-19T02:32:29.807Z,12.04
2023-05-19T02:33:32.440Z,12.04
2023-05-19T02:34:34.655Z,12.04
2023-05-19T02:35:37.303Z,12.08
2023-05-19T02:36:43.566Z,12.09
2023-05-19T02:37:46.064Z,12.10
2023-05-19T02:38:48.204Z,12.09
2023-05-19T02:39:50.470Z,12.07
2023-05-19T02:40:55.651Z,12.03
2023-05-19T02:41:57.772Z,11.92
2023-05-19T02:43:00.137Z,11.87
2023-05-19T02:44:02.331Z,11.83
2023-05-19T02:45:04.957Z,11.79
2023-05-19T02:46:07.114Z,11.76
2023-05-19T02:47:09.274Z,11.75
2023-05-19T02:48:11.469Z,11.73
2023-05-19T02:49:14.685Z,11.71
2023-05-19T02:50:16.926Z,11.72
2023-05-19T02:51:19.151Z,11.77
2023-05-19T02:52:21.261Z,11.81
2023-05-19T02:53:23.472Z,11.82
2023-05-19T02:54:25.737Z,11.82
2023-05-19T02:55:28.081Z,11.81
2023-05-19T02:56:30.249Z,11.79
2023-05-19T02:57:33.326Z,11.77
2023-05-19T02:58:35.492Z,11.76
2023-05-19T02:59:37.697Z,11.73
2023-05-19T03:00:39.895Z,11.73
2023-05-19T03:01:42.120Z,11.72
2023-05-19T03:02:44.468Z,11.70
2023-05-19T03:03:47.093Z,11.72
2023-05-19T03:04:49.462Z,11.72
2023-05-19T03:05:51.907Z,11.76
2023-05-19T03:06:57.801Z,11.80
2023-05-19T03:08:00.148Z,11.79
2023-05-19T03:09:02.302Z,11.83
2023-05-19T03:10:06.608Z,11.85
2023-05-19T03:11:08.864Z,11.82
2023-05-19T03:12:11.060Z,11.79
2023-05-19T03:13:13.222Z,11.81
2023-05-19T03:14:15.387Z,11.85
2023-05-19T03:15:18.793Z,11.90
2023-05-19T03:16:22.055Z,11.93
2023-05-19T03:17:24.384Z,11.94
2023-05-19T03:18:26.786Z,11.94
2023-05-19T03:19:29.268Z,11.90
2023-05-19T03:20:31.656Z,11.89
2023-05-19T03:21:34.607Z,11.93
2023-05-19T03:22:36.889Z,11.96
2023-05-19T03:23:39.075Z,11.96
2023-05-19T03:24:41.331Z,11.96
2023-05-19T03:25:43.483Z,11.97
2023-05-19T03:26:46.047Z,12.00
2023-05-19T03:27:48.323Z,11.96
2023-05-19T03:28:50.853Z,11.97
2023-05-19T03:29:53.934Z,12.00
2023-05-19T03:30:56.100Z,12.01
2023-05-19T03:31:58.324Z,12.02
2023-05-19T03:33:01.832Z,12.04
2023-05-19T03:34:04.066Z,12.07
2023-05-19T03:35:06.951Z,12.11
2023-05-19T03:36:09.188Z,12.11
2023-05-19T03:37:11.344Z,12.17
2023-05-19T03:38:13.665Z,12.21
2023-05-19T03:39:16.885Z,12.24
2023-05-19T03:40:19.134Z,12.25
2023-05-19T03:41:21.403Z,12.26
2023-05-19T03:42:23.592Z,12.29
2023-05-19T03:43:25.734Z,12.32
2023-05-19T03:44:27.900Z,12.36
2023-05-19T03:45:30.141Z,12.38
2023-05-19T03:46:32.315Z,12.44
2023-05-19T03:47:34.587Z,12.49
2023-05-19T03:48:36.817Z,12.51
2023-05-19T03:49:38.997Z,12.54
2023-05-19T03:50:41.152Z,12.53
2023-05-19T03:51:44.349Z,12.58
2023-05-19T03:52:48.165Z,12.60
2023-05-19T03:53:50.365Z,12.64
2023-05-19T03:54:53.072Z,12.68
2023-05-19T03:55:56.726Z,12.70
2023-05-19T03:56:58.917Z,12.73
2023-05-19T03:58:01.297Z,12.76
2023-05-19T03:59:06.189Z,12.75
2023-05-19T04:00:11.292Z,12.72
2023-05-19T04:01:13.597Z,12.78
2023-05-19T04:02:16.747Z,12.76
2023-05-19T04:03:19.188Z,12.78
2023-05-19T04:04:21.852Z,12.79
2023-05-19T04:05:24.076Z,12.80
2023-05-19T04:06:26.288Z,12.86
2023-05-19T04:07:28.421Z,12.89
2023-05-19T04:08:30.615Z,12.95
2023-05-19T04:09:35.259Z,12.86
2023-05-19T04:10:37.449Z,12.81
2023-05-19T04:11:40.462Z,12.86
2023-05-19T04:12:42.712Z,12.92
2023-05-19T04:13:45.326Z,12.95
2023-05-19T04:14:47.560Z,12.93
2023-05-19T04:15:49.816Z,12.97
2023-05-19T04:16:52.253Z,13.00
2023-05-19T04:17:54.419Z,12.97
2023-05-19T04:18:56.854Z,13.00
2023-05-19T04:19:59.019Z,13.01
2023-05-19T04:21:01.865Z,12.96
2023-05-19T04:22:04.144Z,12.94
2023-05-19T04:23:06.301Z,12.98
2023-05-19T04:24:08.615Z,13.02
2023-05-19T04:25:10.885Z,13.06
2023-05-19T04:26:14.812Z,13.02
2023-05-19T04:27:17.962Z,13.04
2023-05-19T04:28:20.386Z,13.06
2023-05-19T04:29:23.989Z,13.08
2023-05-19T04:30:26.158Z,13.13
2023-05-19T04:31:28.708Z,13.21
2023-05-19T04:32:31.116Z,13.27
2023-05-19T04:33:34.082Z,13.29
2023-05-19T04:34:40.189Z,13.35
2023-05-19T04:35:43.881Z,13.39
2023-05-19T04:36:46.094Z,13.41
2023-05-19T04:37:48.571Z,13.47
2023-05-19T04:38:54.888Z,13.50
2023-05-19T04:39:57.218Z,13.51
2023-05-19T04:41:01.284Z,13.57
2023-05-19T04:42:03.534Z,13.58
2023-05-19T04:43:07.348Z,13.72
2023-05-19T04:44:09.567Z,13.66
2023-05-19T04:45:13.922Z,13.74
2023-05-19T04:46:16.175Z,13.76
2023-05-19T04:47:19.292Z,13.85
2023-05-19T04:48:21.825Z,13.85
2023-05-19T04:49:24.480Z,13.79
2023-05-19T04:50:28.637Z,13.90
2023-05-19T04:51:31.582Z,13.89
2023-05-19T04:52:33.944Z,13.86
2023-05-19T04:53:36.711Z,13.90
2023-05-19T04:54:39.702Z,13.88
2023-05-19T04:55:41.840Z,13.92
2023-05-19T04:56:44.020Z,14.05
2023-05-19T04:57:47.041Z,14.05
2023-05-19T04:58:49.676Z,13.96
2023-05-19T04:59:52.272Z,13.96
2023-05-19T05:01:00.498Z,13.96
2023-05-19T05:02:02.866Z,14.12
2023-05-19T05:03:05.945Z,14.21
2023-05-19T05:04:08.237Z,14.31
2023-05-19T05:05:10.442Z,14.31
2023-05-19T05:06:12.653Z,14.34
2023-05-19T05:07:14.782Z,14.36
2023-05-19T05:08:22.961Z,14.31
2023-05-19T05:09:25.208Z,14.46
2023-05-19T05:10:27.492Z,14.62
2023-05-19T05:11:29.968Z,14.67
2023-05-19T05:12:32.541Z,14.73
2023-05-19T05:13:35.359Z,14.80
2023-05-19T05:14:37.815Z,14.85
2023-05-19T05:15:40.146Z,14.88
2023-05-19T05:16:42.876Z,14.94
2023-05-19T05:17:45.344Z,15.02
2023-05-19T05:18:47.898Z,15.05
2023-05-19T05:19:50.332Z,15.10
2023-05-19T05:20:53.458Z,15.15
2023-05-19T05:21:56.024Z,15.11
2023-05-19T05:22:58.780Z,15.12
2023-05-19T05:24:01.317Z,15.16
2023-05-19T05:25:03.868Z,15.12
2023-05-19T05:26:11.536Z,15.13
2023-05-19T05:27:14.571Z,15.00
2023-05-19T05:28:16.845Z,14.92
2023-05-19T05:29:19.948Z,14.93
2023-05-19T05:30:22.156Z,15.05
2023-05-19T05:31:24.355Z,15.15
2023-05-19T05:32:26.585Z,15.32
2023-05-19T05:33:28.877Z,15.35
2023-05-19T05:34:32.008Z,15.32
2023-05-19T05:35:34.333Z,15.23
2023-05-19T05:36:36.684Z,15.34
2023-05-19T05:37:38.943Z,15.39
2023-05-19T05:38:41.175Z,15.47
2023-05-19T05:39:43.344Z,15.59
2023-05-19T05:40:45.582Z,15.74
2023-05-19T05:41:47.739Z,15.84
2023-05-19T05:42:49.952Z,15.84
2023-05-19T05:43:52.161Z,15.92
2023-05-19T05:44:54.373Z,16.06
2023-05-19T05:45:59.443Z,16.20
2023-05-19T05:47:03.027Z,16.21
2023-05-19T05:48:05.738Z,16.10
2023-05-19T05:49:08.459Z,16.00
2023-05-19T05:50:11.373Z,15.91
2023-05-19T05:51:13.794Z,15.80
2023-05-19T05:52:17.982Z,15.67
2023-05-19T05:53:21.470Z,15.51
2023-05-19T05:54:25.001Z,15.48
2023-05-19T05:55:27.692Z,15.48
2023-05-19T05:56:30.111Z,15.53
2023-05-19T05:57:35.278Z,15.46
2023-05-19T05:58:37.909Z,15.53
2023-05-19T05:59:41.055Z,15.45
2023-05-19T06:00:43.604Z,15.42
2023-05-19T06:01:46.190Z,15.30
2023-05-19T06:02:50.707Z,15.17
2023-05-19T06:03:52.883Z,15.25
2023-05-19T06:04:55.193Z,15.27
2023-05-19T06:05:57.671Z,15.34
2023-05-19T06:07:01.822Z,15.49
2023-05-19T06:08:04.739Z,15.47
2023-05-19T06:09:07.240Z,15.52
2023-05-19T06:10:10.176Z,15.52
2023-05-19T06:11:12.387Z,15.50
2023-05-19T06:12:14.529Z,15.53
2023-05-19T06:13:22.302Z,15.54
2023-05-19T06:14:24.505Z,15.49
2023-05-19T06:15:26.877Z,15.44
2023-05-19T06:16:29.151Z,15.43
2023-05-19T06:17:31.422Z,15.41
2023-05-19T06:18:33.677Z,15.44
2023-05-19T06:19:35.880Z,15.42
2023-05-19T06:20:38.051Z,15.38
2023-05-19T06:21:40.228Z,15.45
2023-05-19T06:22:42.499Z,15.61
2023-05-19T06:23:44.856Z,15.69
2023-05-19T06:24:47.064Z,15.77
2023-05-19T06:25:49.231Z,15.93
2023-05-19T06:26:51.362Z,16.06
2023-05-19T06:27:53.507Z,16.18
2023-05-19T06:28:55.688Z,16.29
2023-05-19T06:29:57.917Z,16.25
2023-05-19T06:31:00.297Z,16.24
2023-05-19T06:32:02.561Z,16.18
2023-05-19T06:33:04.855Z,16.14
2023-05-19T06:34:07.070Z,16.23
2023-05-19T06:35:09.525Z,16.25
2023-05-19T06:36:12.129Z,16.13
2023-05-19T06:37:17.043Z,16.06
2023-05-19T06:38:19.186Z,15.94
2023-05-19T06:39:21.325Z,15.86
2023-05-19T06:40:23.855Z,16.00
2023-05-19T06:41:26.291Z,16.05
2023-05-19T06:42:28.489Z,16.13
2023-05-19T06:43:30.758Z,16.24
2023-05-19T06:44:33.037Z,16.29
2023-05-19T06:45:35.379Z,16.32
2023-05-19T06:46:37.742Z,16.44
2023-05-19T06:47:42.500Z,16.42
2023-05-19T06:48:44.772Z,16.46
2023-05-19T06:49:50.666Z,16.48
2023-05-19T06:50:52.885Z,16.49
2023-05-19T06:51:55.053Z,16.51
2023-05-19T06:52:58.481Z,16.46
2023-05-19T06:54:00.644Z,16.53
2023-05-19T06:55:02.837Z,16.60
2023-05-19T06:56:05.313Z,16.62
2023-05-19T06:57:07.499Z,16.79
2023-05-19T06:58:09.651Z,16.89
2023-05-19T06:59:12.499Z,16.99
2023-05-19T07:00:17.959Z,17.15
2023-05-19T07:01:21.859Z,17.39
2023-05-19T07:02:24.276Z,17.61
2023-05-19T07:03:27.323Z,17.76
2023-05-19T07:04:29.723Z,17.92
2023-05-19T07:05:31.856Z,17.91
2023-05-19T07:06:34.037Z,17.92
2023-05-19T07:07:40.647Z,17.88
2023-05-19T07:08:43.242Z,17.95
2023-05-19T07:09:46.344Z,18.03
2023-05-19T07:10:48.758Z,17.95
2023-05-19T07:11:51.303Z,18.18
2023-05-19T07:12:54.043Z,18.17
2023-05-19T07:13:56.782Z,17.98
2023-05-19T07:14:58.966Z,18.05
2023-05-19T07:16:01.161Z,18.13
2023-05-19T07:17:03.469Z,18.27
2023-05-19T07:18:05.666Z,18.39
2023-05-19T07:19:07.896Z,18.37
2023-05-19T07:20:10.367Z,18.55
2023-05-19T07:21:12.469Z,18.73
2023-05-19T07:22:14.959Z,18.87
2023-05-19T07:23:17.554Z,18.98
2023-05-19T07:24:21.458Z,18.98
2023-05-19T07:25:23.837Z,19.17
2023-05-19T07:26:26.776Z,19.29
2023-05-19T07:27:28.943Z,19.39
2023-05-19T07:28:31.145Z,19.28
2023-05-19T07:29:33.263Z,19.05
2023-05-19T07:30:35.617Z,18.85
2023-05-19T07:31:37.977Z,18.72
2023-05-19T07:32:40.176Z,18.66
2023-05-19T07:33:42.326Z,18.71
2023-05-19T07:34:44.472Z,18.56
2023-05-19T07:35:46.737Z,18.27
2023-05-19T07:36:49.161Z,18.32
2023-05-19T07:37:52.551Z,18.61
2023-05-19T07:38:54.796Z,18.72
2023-05-19T07:39:57.096Z,18.91
2023-05-19T07:40:59.315Z,19.12
2023-05-19T07:42:01.914Z,19.00
2023-05-19T07:43:04.156Z,19.17
2023-05-19T07:44:07.821Z,19.12
2023-05-19T07:45:10.890Z,19.08
2023-05-19T07:46:13.076Z,19.08
2023-05-19T07:47:15.269Z,19.17
2023-05-19T07:48:18.913Z,19.26
2023-05-19T07:49:21.141Z,19.37
2023-05-19T07:50:23.428Z,19.35
2023-05-19T07:51:25.631Z,19.44
2023-05-19T07:52:27.812Z,19.47
2023-05-19T07:53:30.041Z,19.32
2023-05-19T07:54:32.248Z,19.39
2023-05-19T07:55:34.450Z,19.62
2023-05-19T07:56:36.631Z,19.58
2023-05-19T07:57:38.840Z,19.77
2023-05-19T07:58:41.018Z,19.52
2023-05-19T07:59:43.190Z,19.42
2023-05-19T08:00:46.184Z,19.54
2023-05-19T08:01:48.488Z,19.72
2023-05-19T08:02:50.783Z,19.38
2023-05-19T08:03:53.331Z,19.38
2023-05-19T08:04:56.723Z,19.44
2023-05-19T08:05:59.079Z,19.63
2023-05-19T08:07:01.227Z,19.83
2023-05-19T08:08:03.597Z,19.82
2023-05-19T08:09:05.863Z,19.92
2023-05-19T08:10:08.262Z,19.84
2023-05-19T08:11:10.462Z,19.84
2023-05-19T08:12:12.638Z,19.74
2023-05-19T08:13:14.820Z,19.84
2023-05-19T08:14:17.167Z,19.84
2023-05-19T08:15:19.691Z,19.82
2023-05-19T08:16:21.988Z,19.51
2023-05-19T08:17:24.154Z,20.11
2023-05-19T08:18:26.900Z,20.42
2023-05-19T08:19:29.199Z,20.58
2023-05-19T08:20:31.891Z,20.73
2023-05-19T08:21:34.712Z,20.52
2023-05-19T08:22:37.111Z,20.20
2023-05-19T08:23:39.359Z,20.07
2023-05-19T08:24:43.348Z,20.15
2023-05-19T08:25:45.739Z,20.44
2023-05-19T08:26:47.909Z,20.64
2023-05-19T08:27:50.079Z,20.70
2023-05-19T08:28:52.280Z,20.89
2023-05-19T08:29:55.406Z,21.11
2023-05-19T08:30:57.612Z,21.05
2023-05-19T08:32:00.436Z,20.67
2023-05-19T08:33:02.820Z,20.73
2023-05-19T08:34:05.005Z,20.31
2023-05-19T08:35:07.751Z,20.18
2023-05-19T08:36:09.900Z,20.27
2023-05-19T08:37:12.099Z,20.33
2023-05-19T08:38:14.280Z,20.30
2023-05-19T08:39:18.322Z,20.36
2023-05-19T08:40:20.648Z,20.60
2023-05-19T08:41:23.376Z,20.77
2023-05-19T08:42:25.784Z,20.82
2023-05-19T08:43:28.075Z,20.93
2023-05-19T08:44:31.300Z,21.10
2023-05-19T08:45:34.660Z,21.25
2023-05-19T08:46:37.179Z,21.42
2023-05-19T08:47:41.719Z,21.59
2023-05-19T08:48:44.443Z,21.83
2023-05-19T08:49:47.517Z,21.79
2023-05-19T08:51:03.555Z,21.40
2023-05-19T08:52:27.419Z,21.19
2023-05-19T08:53:36.846Z,21.08
2023-05-19T08:54:46.936Z,20.96
2023-05-19T08:56:11.177Z,21.10
2023-05-19T08:57:13.730Z,21.27
2023-05-19T08:58:20.362Z,21.49
2023-05-19T08:59:22.890Z,21.85
2023-05-19T09:00:25.546Z,21.75
2023-05-19T09:01:28.925Z,21.65
2023-05-19T09:02:31.270Z,21.80
2023-05-19T09:03:38.181Z,21.90
2023-05-19T09:04:40.788Z,21.37
2023-05-19T09:05:43.154Z,21.22
2023-05-19T09:06:45.604Z,21.12
2023-05-19T09:07:48.395Z,21.15
2023-05-19T09:08:50.530Z,20.97
2023-05-19T09:09:52.812Z,20.96
2023-05-19T09:10:54.995Z,20.83
2023-05-19T09:11:57.705Z,20.82
2023-05-19T09:12:59.909Z,20.71
2023-05-19T09:14:02.192Z,20.63
2023-05-19T09:15:04.803Z,20.46
2023-05-19T09:16:08.284Z,20.33
2023-05-19T09:17:10.725Z,20.35
2023-05-19T09:18:14.437Z,20.69
2023-05-19T09:19:17.162Z,20.93
2023-05-19T09:20:19.447Z,21.15
2023-05-19T09:21:31.140Z,21.34
2023-05-19T09:22:35.919Z,21.88
2023-05-19T09:23:38.135Z,21.98
2023-05-19T09:24:40.747Z,21.91
2023-05-19T09:25:49.979Z,21.75
2023-05-19T09:26:57.001Z,21.78
2023-05-19T09:28:00.127Z,21.70
2023-05-19T09:29:02.376Z,21.84
2023-05-19T09:30:09.301Z,22.16
2023-05-19T09:31:11.566Z,22.12
2023-05-19T09:32:25.024Z,22.93
2023-05-19T09:33:28.609Z,23.51
2023-05-19T09:34:31.207Z,23.72
2023-05-19T09:35:34.789Z,23.48
2023-05-19T09:36:39.911Z,23.73
2023-05-19T09:37:42.849Z,23.75
2023-05-19T09:38:45.721Z,23.73
2023-05-19T09:39:52.069Z,23.67
2023-05-19T09:40:59.510Z,23.56
2023-05-19T09:42:04.656Z,23.64
2023-05-19T09:43:08.120Z,23.37
2023-05-19T09:44:23.772Z,22.99
2023-05-19T09:45:27.321Z,22.83
2023-05-19T09:46:30.320Z,22.87
2023-05-19T09:47:36.994Z,22.77
2023-05-19T09:48:39.181Z,22.72
2023-05-19T09:49:46.859Z,22.46
2023-05-19T09:50:49.334Z,22.56
2023-05-19T09:51:54.726Z,22.64
2023-05-19T09:52:57.021Z,22.65
2023-05-19T09:53:59.601Z,23.34
2023-05-19T09:55:03.958Z,23.76
2023-05-19T09:56:07.349Z,24.03
2023-05-19T09:57:09.604Z,24.02
2023-05-19T09:58:16.983Z,23.86
2023-05-19T09:59:19.439Z,24.53
2023-05-19T10:00:22.992Z,25.14
2023-05-19T10:01:25.697Z,25.63
2023-05-19T10:02:28.574Z,25.57
2023-05-19T10:03:33.060Z,25.62
2023-05-19T10:04:36.414Z,26.11
2023-05-19T10:05:38.747Z,26.77
2023-05-19T10:06:41.581Z,26.72
2023-05-19T10:07:51.569Z,26.70
2023-05-19T10:08:54.736Z,26.76
2023-05-19T10:09:58.697Z,27.05
2023-05-19T10:11:01.199Z,26.84
2023-05-19T10:12:03.767Z,27.08
2023-05-19T10:13:06.372Z,27.14
2023-05-19T10:14:08.581Z,27.44
2023-05-19T10:15:15.230Z,27.68
2023-05-19T10:16:17.604Z,27.79
2023-05-19T10:17:19.938Z,28.30
2023-05-19T10:18:23.144Z,27.86
2023-05-19T10:19:28.861Z,28.14
2023-05-19T10:20:31.891Z,28.45
2023-05-19T10:21:34.175Z,29.00
2023-05-19T10:22:37.205Z,28.49
2023-05-19T10:23:39.469Z,28.28
2023-05-19T10:24:41.706Z,28.31
2023-05-19T10:25:44.324Z,28.25
2023-05-19T10:26:53.219Z,28.27
2023-05-19T10:27:58.109Z,28.30
2023-05-19T10:29:00.626Z,28.38
2023-05-19T10:30:16.811Z,27.87
2023-05-19T10:31:21.919Z,26.77
2023-05-19T10:32:27.273Z,26.17
2023-05-19T10:33:55.069Z,25.68
2023-05-19T10:35:07.578Z,24.98
2023-05-19T10:36:35.543Z,24.49
2023-05-19T10:37:45.562Z,24.02
2023-05-19T10:38:52.043Z,24.61
2023-05-19T10:39:55.657Z,25.27
2023-05-19T10:41:02.334Z,25.85
2023-05-19T10:42:15.945Z,26.39
2023-05-19T10:43:20.951Z,26.92
2023-05-19T10:44:40.524Z,27.25
2023-05-19T10:45:49.635Z,27.78
2023-05-19T10:46:52.548Z,28.11
2023-05-19T10:47:56.543Z,28.51
2023-05-19T10:48:59.520Z,28.87
2023-05-19T10:50:01.873Z,28.50
2023-05-19T10:51:04.865Z,28.97
2023-05-19T10:52:21.565Z,28.67
2023-05-19T10:53:31.214Z,28.86
2023-05-19T10:54:40.914Z,28.62
2023-05-19T10:55:53.830Z,28.21
2023-05-19T10:56:56.855Z,27.59
2023-05-19T10:57:59.060Z,26.71
2023-05-19T10:59:04.210Z,25.95
2023-05-19T11:00:30.170Z,25.49
2023-05-19T11:01:34.054Z,25.24
2023-05-19T11:02:44.191Z,24.81
2023-05-19T11:03:52.387Z,25.09
2023-05-19T11:04:58.443Z,24.83
2023-05-19T11:06:29.811Z,26.16
2023-05-19T11:07:32.084Z,26.74
2023-05-19T11:08:35.075Z,26.93
2023-05-19T11:09:41.159Z,27.05
2023-05-19T11:10:46.466Z,26.36
2023-05-19T11:11:50.120Z,26.87
2023-05-19T11:12:52.409Z,27.67
2023-05-19T11:13:55.513Z,28.18
2023-05-19T11:14:58.337Z,28.76
2023-05-19T11:16:07.710Z,29.44
2023-05-19T11:17:15.319Z,30.00
2023-05-19T11:18:17.555Z,29.97
2023-05-19T11:19:30.432Z,30.02
2023-05-19T11:20:35.075Z,28.86
2023-05-19T11:21:43.738Z,28.18
2023-05-19T11:23:01.630Z,27.25
2023-05-19T11:24:08.527Z,26.56
2023-05-19T11:25:10.824Z,25.86
2023-05-19T11:26:13.243Z,25.34
2023-05-19T11:27:34.906Z,25.57
2023-05-19T11:28:37.294Z,26.49
2023-05-19T11:29:39.505Z,26.85
2023-05-19T11:30:42.860Z,27.41
2023-05-19T11:31:45.184Z,28.34
2023-05-19T11:32:48.226Z,28.19
2023-05-19T11:33:50.698Z,28.62
2023-05-19T11:34:53.225Z,28.58
2023-05-19T11:35:59.895Z,27.72
2023-05-19T11:37:02.143Z,26.98
2023-05-19T11:38:04.357Z,26.58
2023-05-19T11:39:06.700Z,25.97
2023-05-19T11:40:09.350Z,25.76
2023-05-19T11:41:11.511Z,25.46
2023-05-19T11:42:13.757Z,25.13
2023-05-19T11:43:16.816Z,24.86
2023-05-19T11:44:18.960Z,24.57
2023-05-19T11:45:28.244Z,24.81
2023-05-19T11:46:32.176Z,25.73
2023-05-19T11:47:45.966Z,26.73
2023-05-19T11:48:54.759Z,27.71
2023-05-19T11:49:56.962Z,27.75
2023-05-19T11:51:00.525Z,27.71
2023-05-19T11:52:03.710Z,27.77
2023-05-19T11:53:05.887Z,28.12
2023-05-19T11:54:08.391Z,27.95
2023-05-19T11:55:15.814Z,28.27
2023-05-19T11:56:17.999Z,28.40
2023-05-19T11:57:21.082Z,28.78
2023-05-19T11:58:28.939Z,29.10
2023-05-19T11:59:36.026Z,29.28
2023-05-19T12:00:40.772Z,30.10
2023-05-19T12:01:43.302Z,30.04
2023-05-19T12:02:45.670Z,30.00
2023-05-19T12:03:49.814Z,29.57
2023-05-19T12:04:52.412Z,28.89
2023-05-19T12:05:54.697Z,29.20
2023-05-19T12:06:56.921Z,29.51
2023-05-19T12:08:01.004Z,29.12
2023-05-19T12:09:05.576Z,29.06
2023-05-19T12:10:09.086Z,28.95
2023-05-19T12:11:11.528Z,29.14
2023-05-19T12:12:17.026Z,29.75
2023-05-19T12:13:19.712Z,29.79
2023-05-19T12:14:22.005Z,29.91
2023-05-19T12:15:24.861Z,29.99
2023-05-19T12:16:36.137Z,30.23
2023-05-19T12:17:38.356Z,29.87
2023-05-19T12:18:40.575Z,29.29
2023-05-19T12:19:47.244Z,28.62
2023-05-19T12:20:49.623Z,28.95
2023-05-19T12:21:55.196Z,29.12
2023-05-19T12:22:57.882Z,29.56
2023-05-19T12:24:00.175Z,29.60
2023-05-19T12:25:02.748Z,29.07
2023-05-19T12:26:05.062Z,28.39
2023-05-19T12:27:20.429Z,29.15
2023-05-19T12:28:22.660Z,30.12
2023-05-19T12:29:29.036Z,30.48
2023-05-19T12:30:33.138Z,30.33
2023-05-19T12:31:36.086Z,30.04
2023-05-19T12:32:38.629Z,29.64
2023-05-19T12:33:40.828Z,29.39
2023-05-19T12:34:43.035Z,29.08
2023-05-19T12:35:46.444Z,29.37
2023-05-19T12:36:48.778Z,29.78
2023-05-19T12:37:51.500Z,30.20
2023-05-19T12:38:54.952Z,30.39
2023-05-19T12:39:57.752Z,30.77
2023-05-19T12:41:00.220Z,31.16
2023-05-19T12:42:14.993Z,30.74
2023-05-19T12:43:22.194Z,31.18
2023-05-19T12:44:25.010Z,31.57
2023-05-19T12:45:28.332Z,31.39
2023-05-19T12:46:33.084Z,31.43
2023-05-19T12:47:35.929Z,31.60
2023-05-19T12:48:44.995Z,31.51
2023-05-19T12:50:10.306Z,31.83
2023-05-19T12:51:19.654Z,30.61
2023-05-19T12:52:23.375Z,30.16
2023-05-19T12:53:27.466Z,29.94
2023-05-19T12:54:35.593Z,28.98
2023-05-19T12:55:45.746Z,29.84
2023-05-19T12:56:52.028Z,29.63
2023-05-19T12:57:58.151Z,29.66
2023-05-19T12:59:01.718Z,30.38
2023-05-19T13:00:33.329Z,30.69
2023-05-19T13:01:36.645Z,30.54
2023-05-19T13:02:59.948Z,30.58
2023-05-19T13:04:05.412Z,30.44
2023-05-19T13:05:08.775Z,30.13
2023-05-19T13:06:11.804Z,30.24
2023-05-19T13:07:14.094Z,30.58
2023-05-19T13:08:20.144Z,29.38
2023-05-19T13:09:22.546Z,28.46
2023-05-19T13:10:27.237Z,27.70
2023-05-19T13:11:30.036Z,28.13
2023-05-19T13:12:32.258Z,28.19
2023-05-19T13:13:34.467Z,28.99
2023-05-19T13:14:37.707Z,29.63
2023-05-19T13:15:44.608Z,29.28
2023-05-19T13:16:47.342Z,29.96
2023-05-19T13:17:49.597Z,30.33
2023-05-19T13:18:51.792Z,30.86
2023-05-19T13:19:54.108Z,31.06
2023-05-19T13:20:56.416Z,30.96
2023-05-19T13:21:58.850Z,30.34
2023-05-19T13:23:01.644Z,30.84
2023-05-19T13:24:05.051Z,31.07
2023-05-19T13:25:07.712Z,31.30
2023-05-19T13:26:11.646Z,30.87
2023-05-19T13:27:13.768Z,29.80
2023-05-19T13:28:15.944Z,30.07
2023-05-19T13:29:18.088Z,29.71
2023-05-19T13:30:21.971Z,29.26
2023-05-19T13:31:24.169Z,28.72
2023-05-19T13:32:26.386Z,28.03
2023-05-19T13:33:28.593Z,27.91
2023-05-19T13:34:30.778Z,27.88
2023-05-19T13:35:37.377Z,27.21
2023-05-19T13:36:40.134Z,26.89
2023-05-19T13:37:42.574Z,26.50
2023-05-19T13:38:44.780Z,26.34
2023-05-19T13:39:47.075Z,25.97
2023-05-19T13:40:49.272Z,25.82
2023-05-19T13:41:51.452Z,25.55
2023-05-19T13:42:53.579Z,26.06
2023-05-19T13:43:59.390Z,26.20
2023-05-19T13:45:01.956Z,26.55
2023-05-19T13:46:04.450Z,27.28
2023-05-19T13:47:06.708Z,27.92